sensor_id;sensor_type;location;lat;lon;timestamp;pressure;altitude;pressure_sealevel;temperature
40045;BMP280;25735;48.122;11.422;2022-12-29T00:02:03;95073.75;;;4.79
40045;BMP280;25735;48.122;11.422;2022-12-29T00:04:28;95073.47;;;4.77
40045;BMP280;25735;48.122;11.422;2022-12-29T00:06:53;95071.03;;;4.71
40045;BMP280;25735;48.122;11.422;2022-12-29T00:09:19;95065.81;;;4.76
40045;BMP280;25735;48.122;11.422;2022-12-29T00:11:45;95069.91;;;4.80
40045;BMP280;25735;48.122;11.422;2022-12-29T00:14:11;95068.69;;;4.81
40045;BMP280;25735;48.122;11.422;2022-12-29T00:16:56;95057.59;;;4.79
40045;BMP280;25735;48.122;11.422;2022-12-29T00:19:22;95065.53;;;4.74
40045;BMP280;25735;48.122;11.422;2022-12-29T00:22:06;95050.19;;;4.62
40045;BMP280;25735;48.122;11.422;2022-12-29T00:24:50;95053.06;;;4.68
40045;BMP280;25735;48.122;11.422;2022-12-29T00:27:33;95063.78;;;4.59
40045;BMP280;25735;48.122;11.422;2022-12-29T00:30:23;95051.13;;;4.68
40045;BMP280;25735;48.122;11.422;2022-12-29T00:33:12;95058.50;;;4.76
40045;BMP280;25735;48.122;11.422;2022-12-29T00:36:01;95057.25;;;4.69
40045;BMP280;25735;48.122;11.422;2022-12-29T00:38:28;95051.88;;;4.69
40045;BMP280;25735;48.122;11.422;2022-12-29T00:41:12;95048.44;;;4.68
40045;BMP280;25735;48.122;11.422;2022-12-29T00:43:56;95057.59;;;4.79
40045;BMP280;25735;48.122;11.422;2022-12-29T00:46:35;95052.50;;;4.73
40045;BMP280;25735;48.122;11.422;2022-12-29T00:49:01;95050.69;;;4.70
40045;BMP280;25735;48.122;11.422;2022-12-29T00:51:45;95050.13;;;4.75
40045;BMP280;25735;48.122;11.422;2022-12-29T00:54:11;95044.59;;;4.78
40045;BMP280;25735;48.122;11.422;2022-12-29T00:56:36;95045.69;;;4.80
40045;BMP280;25735;48.122;11.422;2022-12-29T00:59:03;95047.28;;;4.78
40045;BMP280;25735;48.122;11.422;2022-12-29T01:01:29;95039.97;;;4.78
40045;BMP280;25735;48.122;11.422;2022-12-29T01:03:54;95047.59;;;4.80
40045;BMP280;25735;48.122;11.422;2022-12-29T01:06:19;95066.28;;;4.75
40045;BMP280;25735;48.122;11.422;2022-12-29T01:08:45;95053.97;;;4.74
40045;BMP280;25735;48.122;11.422;2022-12-29T01:11:11;95055.63;;;4.71
40045;BMP280;25735;48.122;11.422;2022-12-29T01:13:37;95052.81;;;4.75
40045;BMP280;25735;48.122;11.422;2022-12-29T01:16:04;95055.25;;;4.81
40045;BMP280;25735;48.122;11.422;2022-12-29T01:18:29;95057.34;;;4.86
40045;BMP280;25735;48.122;11.422;2022-12-29T01:21:04;95055.25;;;4.81
40045;BMP280;25735;48.122;11.422;2022-12-29T01:23:30;95054.91;;;4.79
40045;BMP280;25735;48.122;11.422;2022-12-29T01:25:56;95047.47;;;4.83
40045;BMP280;25735;48.122;11.422;2022-12-29T01:28:21;95053.22;;;4.94
40045;BMP280;25735;48.122;11.422;2022-12-29T01:30:46;95058.59;;;4.94
40045;BMP280;25735;48.122;11.422;2022-12-29T01:33:12;95054.72;;;4.95
40045;BMP280;25735;48.122;11.422;2022-12-29T01:35:37;95056.97;;;4.97
40045;BMP280;25735;48.122;11.422;2022-12-29T01:38:02;95064.88;;;4.91
40045;BMP280;25735;48.122;11.422;2022-12-29T01:40:27;95070.25;;;4.91
40045;BMP280;25735;48.122;11.422;2022-12-29T01:42:53;95065.56;;;4.83
40045;BMP280;25735;48.122;11.422;2022-12-29T01:45:19;95067.50;;;4.82
40045;BMP280;25735;48.122;11.422;2022-12-29T01:47:48;95054.66;;;4.86
40045;BMP280;25735;48.122;11.422;2022-12-29T01:50:37;95064.25;;;4.87
40045;BMP280;25735;48.122;11.422;2022-12-29T01:53:10;95061.38;;;4.82
40045;BMP280;25735;48.122;11.422;2022-12-29T01:55:46;95064.25;;;4.87
40045;BMP280;25735;48.122;11.422;2022-12-29T01:58:14;95063.66;;;4.92
40045;BMP280;25735;48.122;11.422;2022-12-29T02:00:40;95064.88;;;4.91
40045;BMP280;25735;48.122;11.422;2022-12-29T02:03:06;95053.34;;;4.91
40045;BMP280;25735;48.122;11.422;2022-12-29T02:05:54;95055.06;;;5.06
40045;BMP280;25735;48.122;11.422;2022-12-29T02:08:24;95047.03;;;5.15
40045;BMP280;25735;48.122;11.422;2022-12-29T02:10:51;95033.22;;;5.04
40045;BMP280;25735;48.122;11.422;2022-12-29T02:13:16;95033.69;;;5.11
40045;BMP280;25735;48.122;11.422;2022-12-29T02:24:33;95036.25;;;5.15
40045;BMP280;25735;48.122;11.422;2022-12-29T02:29:40;95037.31;;;5.17
40045;BMP280;25735;48.122;11.422;2022-12-29T02:37:26;95032.13;;;5.32
40045;BMP280;25735;48.122;11.422;2022-12-29T02:42:56;95025.09;;;5.34
40045;BMP280;25735;48.122;11.422;2022-12-29T02:48:17;95019.59;;;5.46
40045;BMP280;25735;48.122;11.422;2022-12-29T02:50:55;95013.00;;;5.47
40045;BMP280;25735;48.122;11.422;2022-12-29T02:53:23;95011.38;;;5.50
40045;BMP280;25735;48.122;11.422;2022-12-29T02:56:09;95016.03;;;5.49
40045;BMP280;25735;48.122;11.422;2022-12-29T02:58:34;95007.44;;;5.42
40045;BMP280;25735;48.122;11.422;2022-12-29T03:01:18;95015.28;;;5.49
40045;BMP280;25735;48.122;11.422;2022-12-29T03:04:03;95007.06;;;5.52
40045;BMP280;25735;48.122;11.422;2022-12-29T03:06:35;95006.59;;;5.54
40045;BMP280;25735;48.122;11.422;2022-12-29T03:09:20;95013.97;;;5.71
40045;BMP280;25735;48.122;11.422;2022-12-29T03:12:12;95001.72;;;5.70
40045;BMP280;25735;48.122;11.422;2022-12-29T03:17:51;95003.50;;;5.73
40045;BMP280;25735;48.122;11.422;2022-12-29T03:20:22;94998.75;;;5.86
40045;BMP280;25735;48.122;11.422;2022-12-29T03:22:51;94987.06;;;5.89
40045;BMP280;25735;48.122;11.422;2022-12-29T03:25:30;94980.03;;;5.91
40045;BMP280;25735;48.122;11.422;2022-12-29T03:27:59;94990.06;;;5.99
40045;BMP280;25735;48.122;11.422;2022-12-29T03:30:28;94994.25;;;6.00
40045;BMP280;25735;48.122;11.422;2022-12-29T03:32:56;94998.00;;;6.03
40045;BMP280;25735;48.122;11.422;2022-12-29T03:35:25;94989.31;;;6.08
40045;BMP280;25735;48.122;11.422;2022-12-29T03:40:38;94984.34;;;6.06
40045;BMP280;25735;48.122;11.422;2022-12-29T03:43:04;94996.19;;;6.09
40045;BMP280;25735;48.122;11.422;2022-12-29T03:45:29;94992.59;;;6.12
40045;BMP280;25735;48.122;11.422;2022-12-29T03:47:54;94985.41;;;6.18
40045;BMP280;25735;48.122;11.422;2022-12-29T03:50:20;94993.34;;;6.21
40045;BMP280;25735;48.122;11.422;2022-12-29T03:52:45;94986.44;;;6.38
40045;BMP280;25735;48.122;11.422;2022-12-29T03:55:10;94988.66;;;6.39
40045;BMP280;25735;48.122;11.422;2022-12-29T03:57:36;94976.53;;;6.44
40045;BMP280;25735;48.122;11.422;2022-12-29T04:00:03;94979.81;;;6.47
40045;BMP280;25735;48.122;11.422;2022-12-29T04:02:28;94980.88;;;6.50
40045;BMP280;25735;48.122;11.422;2022-12-29T04:04:53;94986.13;;;6.45
40045;BMP280;25735;48.122;11.422;2022-12-29T04:07:19;94975.81;;;6.43
40045;BMP280;25735;48.122;11.422;2022-12-29T04:09:44;94964.84;;;6.46
40045;BMP280;25735;48.122;11.422;2022-12-29T04:12:09;94973.06;;;6.52
40045;BMP280;25735;48.122;11.422;2022-12-29T04:14:34;94972.91;;;6.55
40045;BMP280;25735;48.122;11.422;2022-12-29T04:17:00;94972.63;;;6.53
40045;BMP280;25735;48.122;11.422;2022-12-29T04:19:25;94980.56;;;6.57
40045;BMP280;25735;48.122;11.422;2022-12-29T04:21:50;94976.50;;;6.61
40045;BMP280;25735;48.122;11.422;2022-12-29T04:24:15;94980.09;;;6.67
40045;BMP280;25735;48.122;11.422;2022-12-29T04:26:41;94978.72;;;6.72
40045;BMP280;25735;48.122;11.422;2022-12-29T04:29:07;94981.41;;;6.80
40045;BMP280;25735;48.122;11.422;2022-12-29T04:31:32;94969.69;;;6.83
40045;BMP280;25735;48.122;11.422;2022-12-29T04:33:57;94962.97;;;6.79
40045;BMP280;25735;48.122;11.422;2022-12-29T04:36:23;94964.13;;;6.87
40045;BMP280;25735;48.122;11.422;2022-12-29T04:38:48;94967.47;;;6.82
40045;BMP280;25735;48.122;11.422;2022-12-29T04:41:13;94969.84;;;6.80
40045;BMP280;25735;48.122;11.422;2022-12-29T04:43:39;94967.63;;;6.78
40045;BMP280;25735;48.122;11.422;2022-12-29T04:46:04;94960.09;;;6.82
40045;BMP280;25735;48.122;11.422;2022-12-29T04:48:30;94955.31;;;6.77
40045;BMP280;25735;48.122;11.422;2022-12-29T04:50:55;94952.59;;;6.77
40045;BMP280;25735;48.122;11.422;2022-12-29T04:53:20;94954.22;;;6.84
40045;BMP280;25735;48.122;11.422;2022-12-29T04:55:49;94952.25;;;6.93
40045;BMP280;25735;48.122;11.422;2022-12-29T04:58:15;94950.03;;;6.83
40045;BMP280;25735;48.122;11.422;2022-12-29T05:00:40;94954.69;;;6.82
40045;BMP280;25735;48.122;11.422;2022-12-29T05:03:05;94963.25;;;6.81
40045;BMP280;25735;48.122;11.422;2022-12-29T05:05:30;94972.69;;;6.85
40045;BMP280;25735;48.122;11.422;2022-12-29T05:07:56;94974.19;;;6.86
40045;BMP280;25735;48.122;11.422;2022-12-29T05:10:21;94973.44;;;6.86
40045;BMP280;25735;48.122;11.422;2022-12-29T05:12:46;94962.47;;;6.89
40045;BMP280;25735;48.122;11.422;2022-12-29T05:15:13;94975.22;;;6.89
40045;BMP280;25735;48.122;11.422;2022-12-29T05:17:38;94978.22;;;6.91
40045;BMP280;25735;48.122;11.422;2022-12-29T05:20:05;94975.50;;;6.91
40045;BMP280;25735;48.122;11.422;2022-12-29T05:22:30;94967.28;;;6.85
40045;BMP280;25735;48.122;11.422;2022-12-29T05:24:55;94977.63;;;6.87
40045;BMP280;25735;48.122;11.422;2022-12-29T05:27:21;94983.03;;;6.87
40045;BMP280;25735;48.122;11.422;2022-12-29T05:29:46;94983.03;;;6.87
40045;BMP280;25735;48.122;11.422;2022-12-29T05:32:11;94969.88;;;6.71
40045;BMP280;25735;48.122;11.422;2022-12-29T05:34:37;94973.03;;;6.78
40045;BMP280;25735;48.122;11.422;2022-12-29T05:37:02;94966.25;;;6.74
40045;BMP280;25735;48.122;11.422;2022-12-29T05:39:28;94975.84;;;6.75
40045;BMP280;25735;48.122;11.422;2022-12-29T05:41:53;94969.28;;;6.76
40045;BMP280;25735;48.122;11.422;2022-12-29T05:44:18;94960.44;;;6.67
40045;BMP280;25735;48.122;11.422;2022-12-29T05:46:43;94956.09;;;6.69
40045;BMP280;25735;48.122;11.422;2022-12-29T05:49:09;94959.06;;;6.71
40045;BMP280;25735;48.122;11.422;2022-12-29T05:51:34;94954.88;;;6.70
40045;BMP280;25735;48.122;11.422;2022-12-29T05:53:59;94955.19;;;6.72
40045;BMP280;25735;48.122;11.422;2022-12-29T05:56:24;94959.66;;;6.75
40045;BMP280;25735;48.122;11.422;2022-12-29T05:58:50;94956.19;;;6.83
40045;BMP280;25735;48.122;11.422;2022-12-29T06:01:15;94959.94;;;6.86
40045;BMP280;25735;48.122;11.422;2022-12-29T06:03:40;94962.78;;;6.82
40045;BMP280;25735;48.122;11.422;2022-12-29T06:06:06;94963.22;;;6.90
40045;BMP280;25735;48.122;11.422;2022-12-29T06:08:32;94953.31;;;6.87
40045;BMP280;25735;48.122;11.422;2022-12-29T06:10:57;94966.06;;;6.95
40045;BMP280;25735;48.122;11.422;2022-12-29T06:13:22;94966.06;;;6.95
40045;BMP280;25735;48.122;11.422;2022-12-29T06:15:48;94969.03;;;6.97
40045;BMP280;25735;48.122;11.422;2022-12-29T06:18:14;94968.75;;;6.95
40045;BMP280;25735;48.122;11.422;2022-12-29T06:20:39;94965.31;;;6.95
40045;BMP280;25735;48.122;11.422;2022-12-29T06:23:05;94980.56;;;6.98
40045;BMP280;25735;48.122;11.422;2022-12-29T06:25:30;94981.34;;;6.98
40045;BMP280;25735;48.122;11.422;2022-12-29T06:27:57;94973.69;;;6.97
40045;BMP280;25735;48.122;11.422;2022-12-29T06:30:22;94972.22;;;6.87
40045;BMP280;25735;48.122;11.422;2022-12-29T06:32:48;94970.09;;;6.91
40045;BMP280;25735;48.122;11.422;2022-12-29T06:35:13;94973.72;;;6.88
40045;BMP280;25735;48.122;11.422;2022-12-29T06:37:38;94982.75;;;6.85
40045;BMP280;25735;48.122;11.422;2022-12-29T06:40:04;94977.66;;;6.78
40045;BMP280;25735;48.122;11.422;2022-12-29T06:42:30;94971.38;;;6.72
40045;BMP280;25735;48.122;11.422;2022-12-29T06:44:55;94968.69;;;6.72
40045;BMP280;25735;48.122;11.422;2022-12-29T06:47:23;94974.25;;;6.69
40045;BMP280;25735;48.122;11.422;2022-12-29T06:49:48;94975.91;;;6.66
40045;BMP280;25735;48.122;11.422;2022-12-29T06:52:13;94971.41;;;6.63
40045;BMP280;25735;48.122;11.422;2022-12-29T06:54:39;94978.13;;;6.68
40045;BMP280;25735;48.122;11.422;2022-12-29T06:57:04;94970.50;;;6.57
40045;BMP280;25735;48.122;11.422;2022-12-29T06:59:29;94974.84;;;6.55
40045;BMP280;25735;48.122;11.422;2022-12-29T07:01:55;94984.59;;;6.61
40045;BMP280;25735;48.122;11.422;2022-12-29T07:04:20;94982.78;;;6.58
40045;BMP280;25735;48.122;11.422;2022-12-29T07:06:45;94991.19;;;6.60
40045;BMP280;25735;48.122;11.422;2022-12-29T07:09:10;94984.31;;;6.59
40045;BMP280;25735;48.122;11.422;2022-12-29T07:11:36;94989.25;;;6.61
40045;BMP280;25735;48.122;11.422;2022-12-29T07:14:02;94996.59;;;6.69
40045;BMP280;25735;48.122;11.422;2022-12-29T07:16:28;94992.84;;;6.67
40045;BMP280;25735;48.122;11.422;2022-12-29T07:18:54;94998.41;;;6.63
40045;BMP280;25735;48.122;11.422;2022-12-29T07:21:19;95000.34;;;6.63
40045;BMP280;25735;48.122;11.422;2022-12-29T07:23:45;95019.09;;;6.57
40045;BMP280;25735;48.122;11.422;2022-12-29T07:26:13;95024.34;;;6.61
40045;BMP280;25735;48.122;11.422;2022-12-29T07:28:38;95010.84;;;6.61
40045;BMP280;25735;48.122;11.422;2022-12-29T07:31:05;95020.16;;;6.69
40045;BMP280;25735;48.122;11.422;2022-12-29T07:33:31;95018.31;;;6.74
40045;BMP280;25735;48.122;11.422;2022-12-29T07:35:57;95020.25;;;6.74
40045;BMP280;25735;48.122;11.422;2022-12-29T07:38:22;95022.47;;;6.84
40045;BMP280;25735;48.122;11.422;2022-12-29T07:40:48;95021.56;;;6.96
40045;BMP280;25735;48.122;11.422;2022-12-29T07:43:13;95028.59;;;7.02
40045;BMP280;25735;48.122;11.422;2022-12-29T07:45:38;95011.75;;;7.07
40045;BMP280;25735;48.122;11.422;2022-12-29T07:48:05;95016.25;;;7.10
40045;BMP280;25735;48.122;11.422;2022-12-29T07:50:33;95016.09;;;7.14
40045;BMP280;25735;48.122;11.422;2022-12-29T07:52:58;95006.84;;;7.38
40045;BMP280;25735;48.122;11.422;2022-12-29T07:55:23;95018.63;;;7.49
40045;BMP280;25735;48.122;11.422;2022-12-29T07:57:49;95016.47;;;7.62
40045;BMP280;25735;48.122;11.422;2022-12-29T08:00:14;95018.44;;;7.61
40045;BMP280;25735;48.122;11.422;2022-12-29T08:02:39;95020.69;;;7.63
40045;BMP280;25735;48.122;11.422;2022-12-29T08:05:05;95020.03;;;7.45
40045;BMP280;25735;48.122;11.422;2022-12-29T08:07:30;95022.16;;;7.41
40045;BMP280;25735;48.122;11.422;2022-12-29T08:09:56;95006.16;;;7.52
40045;BMP280;25735;48.122;11.422;2022-12-29T08:12:21;95012.09;;;7.41
40045;BMP280;25735;48.122;11.422;2022-12-29T08:14:46;95010.53;;;7.49
40045;BMP280;25735;48.122;11.422;2022-12-29T08:17:11;95015.19;;;7.49
40045;BMP280;25735;48.122;11.422;2022-12-29T08:19:37;95016.97;;;7.52
40045;BMP280;25735;48.122;11.422;2022-12-29T08:22:02;95000.06;;;7.65
40045;BMP280;25735;48.122;11.422;2022-12-29T08:24:28;95021.66;;;7.74
40045;BMP280;25735;48.122;11.422;2022-12-29T08:26:53;95003.31;;;7.78
40045;BMP280;25735;48.122;11.422;2022-12-29T08:29:18;95017.13;;;8.03
40045;BMP280;25735;48.122;11.422;2022-12-29T08:31:44;95014.13;;;8.24
40045;BMP280;25735;48.122;11.422;2022-12-29T08:34:10;95022.03;;;8.51
40045;BMP280;25735;48.122;11.422;2022-12-29T08:36:35;95023.28;;;8.64
40045;BMP280;25735;48.122;11.422;2022-12-29T08:39:01;95018.69;;;8.84
40045;BMP280;25735;48.122;11.422;2022-12-29T08:41:26;95013.38;;;9.04
40045;BMP280;25735;48.122;11.422;2022-12-29T08:43:51;95011.50;;;9.10
40045;BMP280;25735;48.122;11.422;2022-12-29T08:46:17;95007.47;;;9.20
40045;BMP280;25735;48.122;11.422;2022-12-29T08:48:42;95002.22;;;9.45
40045;BMP280;25735;48.122;11.422;2022-12-29T08:51:08;95013.66;;;9.54
40045;BMP280;25735;48.122;11.422;2022-12-29T08:53:34;95028.06;;;9.60
40045;BMP280;25735;48.122;11.422;2022-12-29T08:56:00;95011.69;;;9.69
40045;BMP280;25735;48.122;11.422;2022-12-29T08:58:26;95018.97;;;9.77
40045;BMP280;25735;48.122;11.422;2022-12-29T09:00:56;95025.66;;;9.82
40045;BMP280;25735;48.122;11.422;2022-12-29T09:03:22;95018.25;;;9.96
40045;BMP280;25735;48.122;11.422;2022-12-29T09:05:52;95036.25;;;10.13
40045;BMP280;25735;48.122;11.422;2022-12-29T09:08:18;95023.75;;;10.02
40045;BMP280;25735;48.122;11.422;2022-12-29T09:10:44;95031.16;;;10.01
40045;BMP280;25735;48.122;11.422;2022-12-29T09:13:10;95036.72;;;10.12
40045;BMP280;25735;48.122;11.422;2022-12-29T09:15:36;95041.59;;;10.08
40045;BMP280;25735;48.122;11.422;2022-12-29T09:18:01;95045.56;;;10.27
40045;BMP280;25735;48.122;11.422;2022-12-29T09:20:26;95032.44;;;10.06
40045;BMP280;25735;48.122;11.422;2022-12-29T09:22:52;95036.16;;;10.08
40045;BMP280;25735;48.122;11.422;2022-12-29T09:25:17;95048.38;;;9.98
40045;BMP280;25735;48.122;11.422;2022-12-29T09:27:43;95037.84;;;10.06
40045;BMP280;25735;48.122;11.422;2022-12-29T09:30:11;95042.13;;;10.12
40045;BMP280;25735;48.122;11.422;2022-12-29T09:32:37;95040.94;;;10.33
40045;BMP280;25735;48.122;11.422;2022-12-29T09:35:03;95027.97;;;10.42
40045;BMP280;25735;48.122;11.422;2022-12-29T09:37:28;95023.06;;;10.46
40045;BMP280;25735;48.122;11.422;2022-12-29T09:39:54;95016.09;;;10.20
40045;BMP280;25735;48.122;11.422;2022-12-29T09:42:25;95029.72;;;10.25
40045;BMP280;25735;48.122;11.422;2022-12-29T09:45:03;95029.38;;;9.98
40045;BMP280;25735;48.122;11.422;2022-12-29T09:47:30;95033.88;;;10.01
40045;BMP280;25735;48.122;11.422;2022-12-29T09:55:32;95016.50;;;9.93
40045;BMP280;25735;48.122;11.422;2022-12-29T09:58:06;95018.81;;;10.00
40045;BMP280;25735;48.122;11.422;2022-12-29T10:00:50;95018.66;;;9.89
40045;BMP280;25735;48.122;11.422;2022-12-29T10:03:20;95009.50;;;9.87
40045;BMP280;25735;48.122;11.422;2022-12-29T10:06:08;95009.09;;;9.80
40045;BMP280;25735;48.122;11.422;2022-12-29T10:09:02;95014.47;;;9.74
40045;BMP280;25735;48.122;11.422;2022-12-29T10:20:48;95008.72;;;9.86
40045;BMP280;25735;48.122;11.422;2022-12-29T10:23:24;94998.66;;;9.87
40045;BMP280;25735;48.122;11.422;2022-12-29T10:25:50;94996.38;;;9.85
40045;BMP280;25735;48.122;11.422;2022-12-29T10:28:23;94990.38;;;9.96
40045;BMP280;25735;48.122;11.422;2022-12-29T10:30:49;94998.44;;;9.90
40045;BMP280;25735;48.122;11.422;2022-12-29T10:33:23;94999.13;;;10.05
40045;BMP280;25735;48.122;11.422;2022-12-29T10:35:51;94994.22;;;10.29
40045;BMP280;25735;48.122;11.422;2022-12-29T10:38:25;94999.66;;;10.29
40045;BMP280;25735;48.122;11.422;2022-12-29T10:41:05;94998.69;;;10.32
40045;BMP280;25735;48.122;11.422;2022-12-29T10:43:39;94982.00;;;10.19
40045;BMP280;25735;48.122;11.422;2022-12-29T10:46:11;94978.91;;;10.26
40045;BMP280;25735;48.122;11.422;2022-12-29T10:48:37;94981.41;;;10.29
40045;BMP280;25735;48.122;11.422;2022-12-29T10:51:05;94984.50;;;10.62
40045;BMP280;25735;48.122;11.422;2022-12-29T10:53:44;94973.22;;;10.74
40045;BMP280;25735;48.122;11.422;2022-12-29T10:56:28;94982.19;;;10.80
40045;BMP280;25735;48.122;11.422;2022-12-29T10:58:57;94970.72;;;10.96
40045;BMP280;25735;48.122;11.422;2022-12-29T11:01:29;94963.59;;;11.03
40045;BMP280;25735;48.122;11.422;2022-12-29T11:04:03;94959.84;;;11.26
40045;BMP280;25735;48.122;11.422;2022-12-29T11:06:30;94968.56;;;11.35
40045;BMP280;25735;48.122;11.422;2022-12-29T11:08:58;94954.59;;;11.48
40045;BMP280;25735;48.122;11.422;2022-12-29T11:11:34;94963.13;;;11.71
40045;BMP280;25735;48.122;11.422;2022-12-29T11:14:12;94955.59;;;11.97
40045;BMP280;25735;48.122;11.422;2022-12-29T11:16:38;94940.63;;;12.17
40045;BMP280;25735;48.122;11.422;2022-12-29T11:19:03;94946.03;;;12.96
40045;BMP280;25735;48.122;11.422;2022-12-29T11:21:38;94952.69;;;12.79
40045;BMP280;25735;48.122;11.422;2022-12-29T11:26:44;94922.44;;;12.77
40045;BMP280;25735;48.122;11.422;2022-12-29T11:32:10;94931.88;;;12.98
40045;BMP280;25735;48.122;11.422;2022-12-29T11:34:34;94933.13;;;13.29
40045;BMP280;25735;48.122;11.422;2022-12-29T11:37:03;94919.75;;;13.10
40045;BMP280;25735;48.122;11.422;2022-12-29T11:39:41;94919.25;;;13.00
40045;BMP280;25735;48.122;11.422;2022-12-29T11:42:15;94917.53;;;13.08
40045;BMP280;25735;48.122;11.422;2022-12-29T11:44:49;94912.31;;;13.37
40045;BMP280;25735;48.122;11.422;2022-12-29T11:47:28;94914.47;;;13.66
40045;BMP280;25735;48.122;11.422;2022-12-29T11:49:58;94915.97;;;13.56
40045;BMP280;25735;48.122;11.422;2022-12-29T11:52:26;94904.53;;;13.74
40045;BMP280;25735;48.122;11.422;2022-12-29T11:54:53;94910.84;;;14.14
40045;BMP280;25735;48.122;11.422;2022-12-29T11:57:20;94899.19;;;14.13
40045;BMP280;25735;48.122;11.422;2022-12-29T11:59:50;94918.31;;;14.19
40045;BMP280;25735;48.122;11.422;2022-12-29T12:02:26;94909.78;;;14.28
40045;BMP280;25735;48.122;11.422;2022-12-29T12:04:59;94908.66;;;14.92
40045;BMP280;25735;48.122;11.422;2022-12-29T12:07:38;94899.22;;;15.27
40045;BMP280;25735;48.122;11.422;2022-12-29T12:10:06;94911.94;;;15.77
40045;BMP280;25735;48.122;11.422;2022-12-29T12:12:43;94899.91;;;16.64
40045;BMP280;25735;48.122;11.422;2022-12-29T12:15:25;94906.09;;;17.50
40045;BMP280;25735;48.122;11.422;2022-12-29T12:17:57;94897.91;;;17.32
40045;BMP280;25735;48.122;11.422;2022-12-29T12:20:38;94911.16;;;17.59
40045;BMP280;25735;48.122;11.422;2022-12-29T12:23:53;94894.00;;;17.27
40045;BMP280;25735;48.122;11.422;2022-12-29T12:26:13;94887.88;;;17.34
40045;BMP280;25735;48.122;11.422;2022-12-29T12:28:54;94876.34;;;18.31
40045;BMP280;25735;48.122;11.422;2022-12-29T12:33:57;94891.13;;;17.02
40045;BMP280;25735;48.122;11.422;2022-12-29T12:48:28;94887.38;;;14.40
40045;BMP280;25735;48.122;11.422;2022-12-29T12:54:05;94876.97;;;14.38
40045;BMP280;25735;48.122;11.422;2022-12-29T12:56:46;94867.44;;;14.05
40045;BMP280;25735;48.122;11.422;2022-12-29T12:59:33;94862.03;;;14.00
40045;BMP280;25735;48.122;11.422;2022-12-29T13:10:47;94864.13;;;13.56
40045;BMP280;25735;48.122;11.422;2022-12-29T13:18:28;94865.16;;;13.48
40045;BMP280;25735;48.122;11.422;2022-12-29T13:21:07;94864.91;;;13.40
40045;BMP280;25735;48.122;11.422;2022-12-29T13:23:51;94858.69;;;13.45
40045;BMP280;25735;48.122;11.422;2022-12-29T13:26:24;94850.03;;;13.41
40045;BMP280;25735;48.122;11.422;2022-12-29T13:32:00;94850.03;;;13.30
40045;BMP280;25735;48.122;11.422;2022-12-29T13:34:37;94857.00;;;13.31
40045;BMP280;25735;48.122;11.422;2022-12-29T13:37:10;94871.16;;;13.24
40045;BMP280;25735;48.122;11.422;2022-12-29T13:39:39;94868.91;;;13.12
40045;BMP280;25735;48.122;11.422;2022-12-29T13:42:07;94876.13;;;13.15
40045;BMP280;25735;48.122;11.422;2022-12-29T13:44:39;94871.66;;;13.07
40045;BMP280;25735;48.122;11.422;2022-12-29T13:47:19;94873.88;;;12.97
40045;BMP280;25735;48.122;11.422;2022-12-29T13:49:46;94874.88;;;13.11
40045;BMP280;25735;48.122;11.422;2022-12-29T13:52:24;94864.69;;;13.11
40045;BMP280;25735;48.122;11.422;2022-12-29T13:55:20;94876.38;;;13.12
40045;BMP280;25735;48.122;11.422;2022-12-29T13:58:01;94868.44;;;13.03
40045;BMP280;25735;48.122;11.422;2022-12-29T14:00:35;94863.47;;;13.07
40045;BMP280;25735;48.122;11.422;2022-12-29T14:03:17;94865.94;;;12.94
40045;BMP280;25735;48.122;11.422;2022-12-29T14:06:03;94868.94;;;12.96
40045;BMP280;25735;48.122;11.422;2022-12-29T14:08:33;94864.47;;;12.88
40045;BMP280;25735;48.122;11.422;2022-12-29T14:11:07;94872.41;;;12.80
40045;BMP280;25735;48.122;11.422;2022-12-29T14:13:37;94864.72;;;12.79
40045;BMP280;25735;48.122;11.422;2022-12-29T14:16:04;94871.91;;;12.87
40045;BMP280;25735;48.122;11.422;2022-12-29T14:18:32;94872.16;;;12.84
40045;BMP280;25735;48.122;11.422;2022-12-29T14:21:11;94884.03;;;12.81
40045;BMP280;25735;48.122;11.422;2022-12-29T14:23:45;94881.78;;;12.68
40045;BMP280;25735;48.122;11.422;2022-12-29T14:26:12;94877.31;;;12.60
40045;BMP280;25735;48.122;11.422;2022-12-29T14:28:38;94885.47;;;12.55
40045;BMP280;25735;48.122;11.422;2022-12-29T14:39:03;94882.47;;;12.37
40045;BMP280;25735;48.122;11.422;2022-12-29T14:41:38;94890.88;;;12.33
40045;BMP280;25735;48.122;11.422;2022-12-29T14:49:31;94887.19;;;12.31
40045;BMP280;25735;48.122;11.422;2022-12-29T14:52:20;94889.13;;;12.14
40045;BMP280;25735;48.122;11.422;2022-12-29T14:54:51;94888.00;;;11.79
40045;BMP280;25735;48.122;11.422;2022-12-29T14:57:27;94891.38;;;11.63
40045;BMP280;25735;48.122;11.422;2022-12-29T14:59:58;94890.03;;;11.48
40045;BMP280;25735;48.122;11.422;2022-12-29T15:02:26;94886.81;;;11.44
40045;BMP280;25735;48.122;11.422;2022-12-29T15:04:53;94885.25;;;11.38
40045;BMP280;25735;48.122;11.422;2022-12-29T15:07:23;94900.78;;;11.26
40045;BMP280;25735;48.122;11.422;2022-12-29T15:09:54;94890.59;;;11.22
40045;BMP280;25735;48.122;11.422;2022-12-29T15:14:57;94916.00;;;11.13
40045;BMP280;25735;48.122;11.422;2022-12-29T15:17:24;94906.06;;;11.05
40045;BMP280;25735;48.122;11.422;2022-12-29T15:19:50;94907.84;;;11.13
40045;BMP280;25735;48.122;11.422;2022-12-29T15:22:15;94905.97;;;10.94
40045;BMP280;25735;48.122;11.422;2022-12-29T15:24:44;94915.13;;;11.27
40045;BMP280;25735;48.122;11.422;2022-12-29T15:27:17;94914.41;;;11.32
40045;BMP280;25735;48.122;11.422;2022-12-29T15:29:45;94896.16;;;11.38
40045;BMP280;25735;48.122;11.422;2022-12-29T15:32:20;94898.19;;;11.43
40045;BMP280;25735;48.122;11.422;2022-12-29T15:34:48;94903.69;;;11.53
40045;BMP280;25735;48.122;11.422;2022-12-29T15:37:22;94917.25;;;11.48
40045;BMP280;25735;48.122;11.422;2022-12-29T15:39:48;94893.50;;;11.43
40045;BMP280;25735;48.122;11.422;2022-12-29T15:44:42;94908.84;;;11.52
40045;BMP280;25735;48.122;11.422;2022-12-29T15:47:22;94906.59;;;11.45
40045;BMP280;25735;48.122;11.422;2022-12-29T15:49:49;94920.34;;;11.36
40045;BMP280;25735;48.122;11.422;2022-12-29T15:52:23;94898.47;;;11.50
40045;BMP280;25735;48.122;11.422;2022-12-29T15:54:50;94911.06;;;11.48
40045;BMP280;25735;48.122;11.422;2022-12-29T15:57:23;94904.53;;;11.34
40045;BMP280;25735;48.122;11.422;2022-12-29T15:59:49;94918.59;;;11.27